Time,TemperatureF,DewpointF,PressureIn,WindDirection,WindDirectionDegrees,WindSpeedMPH,WindSpeedGustMPH,Humidity,HourlyPrecipIn,Conditions,Clouds,dailyrainin,SoftwareType,DateUTC
2013-08-02 00:05:00,69.3,57.0,29.94,WSW,251,2.0,3.0,65,0.00,,,0.00,Wunderground v.1.15,2013-08-02 05:05:00,
2013-08-02 00:10:00,69.5,56.8,29.94,West,259,0.0,3.0,64,0.00,,,0.00,Wunderground v.1.15,2013-08-02 05:10:00,
2013-08-02 00:15:00,69.8,56.6,29.94,WSW,242,0.0,2.0,63,0.00,,,0.00,Wunderground v.1.15,2013-08-02 05:15:00,
2013-08-02 00:20:00,70.0,56.8,29.93,West,273,0.0,2.0,63,0.00,,,0.00,Wunderground v.1.15,2013-08-02 05:20:00,
2013-08-02 00:25:00,70.0,56.8,29.94,WNW,291,0.0,3.0,63,0.00,,,0.00,Wunderground v.1.15,2013-08-02 05:25:00,
2013-08-02 00:30:00,69.9,56.7,29.93,West,268,2.0,3.0,63,0.00,,,0.00,Wunderground v.1.15,2013-08-02 05:30:00,
2013-08-02 00:35:00,69.9,56.7,29.93,WSW,239,2.0,3.0,63,0.00,,,0.00,Wunderground v.1.15,2013-08-02 05:35:00,
2013-08-02 00:38:00,70.0,56.8,29.93,WSW,243,2.0,3.0,63,0.00,,,0.00,Wunderground v.1.15,2013-08-02 05:38:00,
2013-08-02 00:43:00,69.9,56.7,29.93,West,261,1.0,2.0,63,0.00,,,0.00,Wunderground v.1.15,2013-08-02 05:43:00,
2013-08-02 00:48:00,69.8,56.6,29.93,WSW,251,3.0,3.0,63,0.00,,,0.00,Wunderground v.1.15,2013-08-02 05:48:00,
2013-08-02 00:54:00,69.8,56.6,29.93,WSW,249,2.0,2.0,63,0.00,,,0.00,Wunderground v.1.15,2013-08-02 05:54:00,
2013-08-02 00:59:00,69.7,57.0,29.92,West,269,1.0,3.0,64,0.00,,,0.00,Wunderground v.1.15,2013-08-02 05:59:00,
2013-08-02 01:04:00,69.5,56.8,29.92,WSW,250,1.0,2.0,64,0.00,,,0.00,Wunderground v.1.15,2013-08-02 06:04:00,
2013-08-02 01:09:00,69.4,56.7,29.92,WSW,254,0.0,2.0,64,0.00,,,0.00,Wunderground v.1.15,2013-08-02 06:09:00,
2013-08-02 01:14:00,69.3,56.2,29.92,WSW,252,1.0,2.0,63,0.00,,,0.00,Wunderground v.1.15,2013-08-02 06:14:00,
2013-08-02 01:19:00,69.3,56.2,29.91,West,259,2.0,3.0,63,0.00,,,0.00,Wunderground v.1.15,2013-08-02 06:19:00,
2013-08-02 01:24:00,69.2,56.5,29.91,West,262,1.0,4.0,64,0.00,,,0.00,Wunderground v.1.15,2013-08-02 06:24:00,
2013-08-02 01:29:00,69.2,56.1,29.91,West,274,2.0,4.0,63,0.00,,,0.00,Wunderground v.1.15,2013-08-02 06:29:00,
2013-08-02 01:34:00,69.2,56.5,29.91,West,279,3.0,3.0,64,0.00,,,0.00,Wunderground v.1.15,2013-08-02 06:34:00,
2013-08-02 01:39:00,69.2,56.1,29.91,West,267,3.0,3.0,63,0.00,,,0.00,Wunderground v.1.15,2013-08-02 06:39:00,
2013-08-02 01:45:00,69.2,56.1,29.91,WSW,248,4.0,4.0,63,0.00,,,0.00,Wunderground v.1.15,2013-08-02 06:45:00,
2013-08-02 01:50:00,69.3,56.2,29.91,SW,232,3.0,4.0,63,0.00,,,0.00,Wunderground v.1.15,2013-08-02 06:50:00,
2013-08-02 01:55:00,69.3,56.2,29.91,West,267,2.0,4.0,63,0.00,,,0.00,Wunderground v.1.15,2013-08-02 06:55:00,
2013-08-02 02:00:00,69.2,56.5,29.92,WSW,254,2.0,7.0,64,0.00,,,0.00,Wunderground v.1.15,2013-08-02 07:00:00,
2013-08-02 02:05:00,69.1,56.4,29.91,WSW,240,6.0,6.0,64,0.00,,,0.00,Wunderground v.1.15,2013-08-02 07:05:00,
2013-08-02 02:10:00,69.1,56.4,29.91,WSW,250,3.0,8.0,64,0.00,,,0.00,Wunderground v.1.15,2013-08-02 07:10:00,
2013-08-02 02:15:00,69.0,56.3,29.91,WSW,241,2.0,6.0,64,0.00,,,0.00,Wunderground v.1.15,2013-08-02 07:15:00,
2013-08-02 02:20:00,69.0,56.3,29.91,WSW,241,6.0,7.0,64,0.00,,,0.00,Wunderground v.1.15,2013-08-02 07:20:00,
2013-08-02 02:25:00,69.0,56.7,29.91,SW,235,3.0,6.0,65,0.00,,,0.00,Wunderground v.1.15,2013-08-02 07:25:00,
2013-08-02 02:30:00,69.0,56.7,29.91,SW,235,3.0,8.0,65,0.00,,,0.00,Wunderground v.1.15,2013-08-02 07:30:00,
2013-08-02 02:35:00,69.0,56.7,29.92,WSW,257,1.0,7.0,65,0.00,,,0.00,Wunderground v.1.15,2013-08-02 07:35:00,
2013-08-02 02:40:00,69.0,56.7,29.91,SSW,208,3.0,7.0,65,0.00,,,0.00,Wunderground v.1.15,2013-08-02 07:40:00,
2013-08-02 02:45:00,68.7,57.7,29.91,West,270,3.0,8.0,68,0.00,,,0.00,Wunderground v.1.15,2013-08-02 07:45:00,
2013-08-02 02:50:00,68.4,57.4,29.92,West,278,7.0,10.0,68,0.00,,,0.00,Wunderground v.1.15,2013-08-02 07:50:00,
2013-08-02 02:55:00,68.3,57.7,29.91,West,263,4.0,4.0,69,0.00,,,0.01,Wunderground v.1.15,2013-08-02 07:55:00,
2013-08-02 03:00:00,67.9,58.9,29.91,West,261,2.0,4.0,73,0.00,,,0.01,Wunderground v.1.15,2013-08-02 08:00:00,
2013-08-02 03:05:00,67.6,57.9,29.92,WSW,242,3.0,8.0,71,0.00,,,0.01,Wunderground v.1.15,2013-08-02 08:05:00,
2013-08-02 03:10:00,67.4,58.4,29.92,WSW,248,0.0,8.0,73,0.38,,,0.05,Wunderground v.1.15,2013-08-02 08:10:00,
2013-08-02 03:15:00,66.6,59.9,29.93,NW,315,2.0,4.0,79,0.24,,,0.07,Wunderground v.1.15,2013-08-02 08:15:00,
2013-08-02 03:20:00,65.6,60.0,29.94,NW,319,2.0,5.0,82,0.30,,,0.09,Wunderground v.1.15,2013-08-02 08:20:00,
2013-08-02 03:25:00,65.1,59.8,29.93,NW,314,1.0,3.0,83,1.76,,,0.21,Wunderground v.1.15,2013-08-02 08:25:00,
2013-08-02 03:30:00,64.5,60.2,29.92,SE,138,0.0,4.0,86,0.16,,,0.24,Wunderground v.1.15,2013-08-02 08:30:00,
2013-08-02 03:35:00,64.2,60.2,29.92,ENE,65,2.0,2.0,87,0.07,,,0.24,Wunderground v.1.15,2013-08-02 08:35:00,
2013-08-02 03:40:00,64.0,60.7,29.92,NNE,30,1.0,4.0,89,0.04,,,0.24,Wunderground v.1.15,2013-08-02 08:40:00,
2013-08-02 03:45:00,63.8,61.1,29.92,NE,43,1.0,2.0,91,0.00,,,0.24,Wunderground v.1.15,2013-08-02 08:45:00,
2013-08-02 03:50:00,63.8,61.1,29.92,NE,43,0.0,2.0,91,0.00,,,0.24,Wunderground v.1.15,2013-08-02 08:50:00,
2013-08-02 03:55:00,63.8,61.1,29.91,SSE,161,1.0,2.0,91,0.00,,,0.24,Wunderground v.1.15,2013-08-02 08:55:00,
2013-08-02 04:00:00,63.7,61.3,29.91,South,174,1.0,4.0,92,0.00,,,0.24,Wunderground v.1.15,2013-08-02 09:00:00,
2013-08-02 04:05:00,63.7,61.3,29.92,SSE,159,0.0,3.0,92,0.00,,,0.24,Wunderground v.1.15,2013-08-02 09:05:00,
2013-08-02 04:10:00,63.9,61.2,29.91,SSE,157,1.0,3.0,91,0.00,,,0.24,Wunderground v.1.15,2013-08-02 09:10:00,
2013-08-02 04:15:00,64.0,61.3,29.91,SE,143,1.0,4.0,91,0.00,,,0.24,Wunderground v.1.15,2013-08-02 09:15:00,
2013-08-02 04:20:00,64.2,61.5,29.91,South,178,1.0,4.0,91,0.00,,,0.24,Wunderground v.1.15,2013-08-02 09:20:00,
2013-08-02 04:25:00,64.2,61.5,29.91,SSE,166,0.0,4.0,91,0.00,,,0.24,Wunderground v.1.15,2013-08-02 09:25:00,
2013-08-02 04:30:00,64.2,60.9,29.92,WSW,244,0.0,4.0,89,0.00,,,0.24,Wunderground v.1.15,2013-08-02 09:30:00,
2013-08-02 04:35:00,64.3,61.6,29.92,North,5,4.0,5.0,91,0.33,,,0.27,Wunderground v.1.15,2013-08-02 09:35:00,
2013-08-02 04:40:00,64.3,61.9,29.93,NE,40,0.0,5.0,92,0.11,,,0.27,Wunderground v.1.15,2013-08-02 09:40:00,
2013-08-02 04:45:00,64.3,61.9,29.92,ESE,115,2.0,3.0,92,0.06,,,0.27,Wunderground v.1.15,2013-08-02 09:45:00,
2013-08-02 04:50:00,64.4,62.0,29.91,SSE,151,1.0,4.0,92,0.04,,,0.27,Wunderground v.1.15,2013-08-02 09:50:00,
2013-08-02 04:55:00,64.5,62.1,29.91,SSE,159,0.0,4.0,92,0.00,,,0.27,Wunderground v.1.15,2013-08-02 09:55:00,
2013-08-02 05:00:00,64.5,61.8,29.91,SSW,199,2.0,4.0,91,0.00,,,0.27,Wunderground v.1.15,2013-08-02 10:00:00,
2013-08-02 05:05:00,64.4,61.7,29.92,SSW,200,0.0,1.0,91,0.00,,,0.27,Wunderground v.1.15,2013-08-02 10:05:00,
2013-08-02 05:10:00,-999.9,-99.9,29.92,SW,217,0.0,3.0,91,0.93,,,0.29,Wunderground v.1.15,2013-08-02 10:10:00,
2013-08-02 05:15:00,64.4,61.7,29.92,NE,51,3.0,3.0,91,2.03,,,0.33,Wunderground v.1.15,2013-08-02 10:15:00,
2013-08-02 05:20:00,64.4,62.0,29.91,ESE,107,1.0,3.0,92,0.13,,,0.35,Wunderground v.1.15,2013-08-02 10:20:00,
2013-08-02 05:25:00,64.3,61.9,29.91,ESE,107,0.0,2.0,92,0.06,,,0.35,Wunderground v.1.15,2013-08-02 10:25:00,
2013-08-02 05:30:00,64.4,62.0,29.91,SE,130,0.0,3.0,92,0.04,,,0.35,Wunderground v.1.15,2013-08-02 10:30:00,
2013-08-02 05:35:00,64.5,62.1,29.90,SE,144,0.0,2.0,92,0.00,,,0.35,Wunderground v.1.15,2013-08-02 10:35:00,
2013-08-02 05:40:00,64.7,62.0,29.90,SE,132,0.0,4.0,91,0.00,,,0.35,Wunderground v.1.15,2013-08-02 10:40:00,
2013-08-02 05:45:00,64.9,62.2,29.90,SE,136,2.0,3.0,91,0.00,,,0.35,Wunderground v.1.15,2013-08-02 10:45:00,
2013-08-02 05:50:00,64.9,62.2,29.90,South,184,1.0,6.0,91,0.00,,,0.35,Wunderground v.1.15,2013-08-02 10:50:00,
2013-08-02 05:55:00,65.0,62.3,29.89,South,176,2.0,7.0,91,0.00,,,0.35,Wunderground v.1.15,2013-08-02 10:55:00,
2013-08-02 06:00:00,65.0,62.0,29.89,SSW,202,0.0,10.0,90,0.00,,,0.35,Wunderground v.1.15,2013-08-02 11:00:00,
2013-08-02 06:05:00,65.1,61.8,29.89,SE,131,2.0,5.0,89,0.00,,,0.35,Wunderground v.1.15,2013-08-02 11:05:00,
2013-08-02 06:10:00,65.1,61.8,29.89,SW,229,0.0,6.0,89,0.00,,,0.35,Wunderground v.1.15,2013-08-02 11:10:00,
2013-08-02 06:15:00,65.0,62.0,29.89,WSW,248,0.0,2.0,90,0.00,,,0.35,Wunderground v.1.15,2013-08-02 11:15:00,
2013-08-02 06:20:00,64.9,61.3,29.89,SSE,165,0.0,2.0,88,0.00,,,0.35,Wunderground v.1.15,2013-08-02 11:20:00,
2013-08-02 06:25:00,64.9,61.3,29.88,WSW,240,0.0,2.0,88,0.00,,,0.35,Wunderground v.1.15,2013-08-02 11:25:00,
2013-08-02 06:30:00,64.8,61.2,29.89,WSW,239,1.0,2.0,88,0.00,,,0.35,Wunderground v.1.15,2013-08-02 11:30:00,
2013-08-02 06:35:00,64.8,60.8,29.89,SSW,211,6.0,8.0,87,0.00,,,0.36,Wunderground v.1.15,2013-08-02 11:35:00,
2013-08-02 06:40:00,65.0,60.4,29.88,SE,145,6.0,9.0,85,0.00,,,0.36,Wunderground v.1.15,2013-08-02 11:40:00,
2013-08-02 06:45:00,65.0,61.0,29.88,SSW,198,0.0,5.0,87,0.00,,,0.36,Wunderground v.1.15,2013-08-02 11:45:00,
2013-08-02 06:50:00,64.8,60.5,29.87,SSW,210,1.0,5.0,86,0.00,,,0.36,Wunderground v.1.15,2013-08-02 11:50:00,
2013-08-02 06:55:00,64.8,59.9,29.86,SSE,159,2.0,8.0,84,0.00,,,0.36,Wunderground v.1.15,2013-08-02 11:55:00,
2013-08-02 07:00:00,64.9,60.6,29.86,NNW,332,2.0,15.0,86,0.00,,,0.36,Wunderground v.1.15,2013-08-02 12:00:00,
2013-08-02 07:05:00,64.7,60.7,29.87,West,267,0.0,3.0,87,0.00,,,0.36,Wunderground v.1.15,2013-08-02 12:05:00,
2013-08-02 07:10:00,64.6,60.6,29.87,SW,221,3.0,6.0,87,0.00,,,0.36,Wunderground v.1.15,2013-08-02 12:10:00,
2013-08-02 07:15:00,64.6,60.6,29.89,NNW,343,4.0,7.0,87,2.32,,,0.43,Wunderground v.1.15,2013-08-02 12:15:00,
2013-08-02 07:20:00,64.2,60.9,29.89,ESE,117,0.0,7.0,89,0.73,,,0.46,Wunderground v.1.15,2013-08-02 12:20:00,
2013-08-02 07:25:00,64.0,61.0,29.91,WSW,246,3.0,7.0,90,3.95,,,0.51,Wunderground v.1.15,2013-08-02 12:25:00,
2013-08-02 07:30:00,63.6,60.3,29.89,SSW,212,6.0,16.0,89,2.24,,,0.65,Wunderground v.1.15,2013-08-02 12:30:00,
2013-08-02 07:35:00,63.4,60.7,29.88,SSW,205,3.0,10.0,91,0.12,,,0.66,Wunderground v.1.15,2013-08-02 12:35:00,
2013-08-02 07:40:00,63.5,60.8,29.90,NNW,344,2.0,10.0,91,0.06,,,0.66,Wunderground v.1.15,2013-08-02 12:40:00,
2013-08-02 07:45:00,63.4,61.0,29.90,NE,40,2.0,5.0,92,0.63,,,0.68,Wunderground v.1.15,2013-08-02 12:45:00,
2013-08-02 07:50:00,63.4,61.0,29.90,SSW,200,1.0,5.0,92,0.12,,,0.69,Wunderground v.1.15,2013-08-02 12:50:00,
2013-08-02 08:22:00,64.0,61.6,29.90,SSW,201,1.0,2.0,92,0.04,,,0.76,Wunderground v.1.15,2013-08-02 13:22:00,
2013-08-02 08:28:00,64.2,61.8,29.90,WSW,244,1.0,4.0,92,0.00,,,0.76,Wunderground v.1.15,2013-08-02 13:28:00,
2013-08-02 08:33:00,64.5,61.8,29.90,SSW,199,1.0,5.0,91,0.00,,,0.76,Wunderground v.1.15,2013-08-02 13:33:00,
2013-08-02 08:38:00,65.0,62.3,29.90,SSW,213,5.0,8.0,91,0.00,,,0.76,Wunderground v.1.15,2013-08-02 13:38:00,
2013-08-02 08:43:00,65.5,62.5,29.89,SSW,202,3.0,7.0,90,0.00,,,0.76,Wunderground v.1.15,2013-08-02 13:43:00,
2013-08-02 08:48:00,66.0,63.0,29.89,SSW,209,2.0,7.0,90,0.00,,,0.76,Wunderground v.1.15,2013-08-02 13:48:00,
2013-08-02 08:53:00,66.7,63.4,29.89,South,179,3.0,7.0,89,0.00,,,0.76,Wunderground v.1.15,2013-08-02 13:53:00,
2013-08-02 09:40:00,68.4,64.7,29.88,SW,229,2.0,3.0,88,0.00,,,0.76,Wunderground v.1.15,2013-08-02 14:40:00,
2013-08-02 09:45:00,68.8,64.4,29.88,WSW,246,3.0,13.0,86,0.00,,,0.76,Wunderground v.1.15,2013-08-02 14:45:00,
2013-08-02 09:50:00,69.0,64.6,29.88,SSW,209,3.0,4.0,86,0.00,,,0.76,Wunderground v.1.15,2013-08-02 14:50:00,
2013-08-02 09:55:00,69.1,64.7,29.88,WSW,244,2.0,7.0,86,0.00,,,0.76,Wunderground v.1.15,2013-08-02 14:55:00,
2013-08-02 10:00:00,69.2,64.8,29.87,South,174,3.0,3.0,86,0.00,,,0.76,Wunderground v.1.15,2013-08-02 15:00:00,
2013-08-02 10:05:00,69.3,64.9,29.88,South,185,4.0,6.0,86,0.00,,,0.76,Wunderground v.1.15,2013-08-02 15:05:00,
2013-08-02 10:10:00,69.4,64.7,29.87,SW,236,4.0,6.0,85,0.00,,,0.76,Wunderground v.1.15,2013-08-02 15:10:00,
2013-08-02 10:15:00,69.8,65.4,29.87,SSW,210,0.0,4.0,86,0.00,,,0.76,Wunderground v.1.15,2013-08-02 15:15:00,
2013-08-02 10:20:00,70.2,65.5,29.87,SW,236,2.0,7.0,85,0.00,,,0.76,Wunderground v.1.15,2013-08-02 15:20:00,
2013-08-02 10:25:00,70.5,65.4,29.87,SW,217,5.0,6.0,84,0.00,,,0.76,Wunderground v.1.15,2013-08-02 15:25:00,
2013-08-02 10:30:00,70.8,66.1,29.87,SW,217,3.0,8.0,85,0.00,,,0.76,Wunderground v.1.15,2013-08-02 15:30:00,
2013-08-02 10:35:00,71.4,66.3,29.87,SSW,203,6.0,9.0,84,0.00,,,0.76,Wunderground v.1.15,2013-08-02 15:35:00,
2013-08-02 10:40:00,72.0,66.6,29.87,SW,215,2.0,9.0,83,0.00,,,0.76,Wunderground v.1.15,2013-08-02 15:40:00,
2013-08-02 10:45:00,72.6,67.5,29.87,WSW,240,0.0,8.0,84,0.00,,,0.76,Wunderground v.1.15,2013-08-02 15:45:00,
2013-08-02 10:50:00,73.3,66.8,29.87,SW,228,2.0,10.0,80,0.00,,,0.76,Wunderground v.1.15,2013-08-02 15:50:00,
2013-08-02 10:55:00,73.8,67.2,29.87,SW,217,4.0,12.0,80,0.00,,,0.76,Wunderground v.1.15,2013-08-02 15:55:00,
2013-08-02 11:00:00,73.7,66.4,29.87,West,265,3.0,12.0,78,0.00,,,0.76,Wunderground v.1.15,2013-08-02 16:00:00,
2013-08-02 11:05:00,73.8,66.9,29.87,SW,234,4.0,12.0,79,0.00,,,0.76,Wunderground v.1.15,2013-08-02 16:05:00,
2013-08-02 11:10:00,74.1,66.8,29.87,West,262,3.0,12.0,78,0.00,,,0.76,Wunderground v.1.15,2013-08-02 16:10:00,
2013-08-02 11:15:00,74.6,67.7,29.86,WSW,244,3.0,6.0,79,0.00,,,0.76,Wunderground v.1.15,2013-08-02 16:15:00,
2013-08-02 11:20:00,75.3,67.6,29.86,SW,232,3.0,8.0,77,0.00,,,0.76,Wunderground v.1.15,2013-08-02 16:20:00,
2013-08-02 11:25:00,75.8,68.1,29.86,SSW,205,1.0,8.0,77,0.00,,,0.76,Wunderground v.1.15,2013-08-02 16:25:00,
2013-08-02 11:30:00,76.4,67.9,29.86,West,260,3.0,8.0,75,0.00,,,0.76,Wunderground v.1.15,2013-08-02 16:30:00,
2013-08-02 11:35:00,76.5,67.2,29.86,NW,313,4.0,11.0,73,0.00,,,0.76,Wunderground v.1.15,2013-08-02 16:35:00,
2013-08-02 11:40:00,76.7,67.8,29.87,NW,323,3.0,11.0,74,0.00,,,0.76,Wunderground v.1.15,2013-08-02 16:40:00,
2013-08-02 11:45:00,77.2,68.3,29.86,NW,323,1.0,7.0,74,0.00,,,0.76,Wunderground v.1.15,2013-08-02 16:45:00,
2013-08-02 11:50:00,77.8,67.6,29.86,SW,217,1.0,8.0,71,0.00,,,0.76,Wunderground v.1.15,2013-08-02 16:50:00,
2013-08-02 11:55:00,77.9,67.7,29.86,SSE,161,5.0,11.0,71,0.00,,,0.76,Wunderground v.1.15,2013-08-02 16:55:00,
2013-08-02 12:00:00,78.5,68.3,29.86,West,272,7.0,11.0,71,0.00,,,0.76,Wunderground v.1.15,2013-08-02 17:00:00,
2013-08-02 12:05:00,78.8,68.6,29.86,WSW,239,5.0,12.0,71,0.00,,,0.76,Wunderground v.1.15,2013-08-02 17:05:00,
2013-08-02 12:10:00,79.1,68.1,29.86,SW,231,3.0,12.0,69,0.00,,,0.76,Wunderground v.1.15,2013-08-02 17:10:00,
2013-08-02 12:15:00,79.7,68.2,29.85,SSW,202,5.0,11.0,68,0.00,,,0.76,Wunderground v.1.15,2013-08-02 17:15:00,
2013-08-02 12:20:00,80.2,68.2,29.85,SW,224,6.0,11.0,67,0.00,,,0.76,Wunderground v.1.15,2013-08-02 17:20:00,
2013-08-02 12:25:00,80.3,68.3,29.85,West,272,6.0,8.0,67,0.00,,,0.76,Wunderground v.1.15,2013-08-02 17:25:00,
2013-08-02 12:30:00,80.5,67.6,29.85,West,278,1.0,12.0,65,0.00,,,0.76,Wunderground v.1.15,2013-08-02 17:30:00,
2013-08-02 12:35:00,80.9,68.5,29.85,WNW,285,1.0,8.0,66,0.00,,,0.76,Wunderground v.1.15,2013-08-02 17:35:00,
2013-08-02 12:40:00,81.0,68.1,29.84,WNW,296,4.0,14.0,65,0.00,,,0.76,Wunderground v.1.15,2013-08-02 17:40:00,
2013-08-02 12:45:00,81.2,67.9,29.84,WSW,237,2.0,17.0,64,0.00,,,0.76,Wunderground v.1.15,2013-08-02 17:45:00,
2013-08-02 12:50:00,81.2,67.4,29.85,SW,229,5.0,18.0,63,0.00,,,0.76,Wunderground v.1.15,2013-08-02 17:50:00,
2013-08-02 12:55:00,81.4,68.1,29.85,WNW,288,7.0,11.0,64,0.00,,,0.76,Wunderground v.1.15,2013-08-02 17:55:00,
2013-08-02 13:00:00,81.7,67.9,29.85,West,269,10.0,12.0,63,0.00,,,0.76,Wunderground v.1.15,2013-08-02 18:00:00,
2013-08-02 13:05:00,81.9,68.5,29.85,WNW,292,4.0,13.0,64,0.00,,,0.76,Wunderground v.1.15,2013-08-02 18:05:00,
2013-08-02 13:10:00,81.7,67.9,29.85,WNW,290,2.0,13.0,63,0.00,,,0.76,Wunderground v.1.15,2013-08-02 18:10:00,
2013-08-02 13:15:00,82.3,68.0,29.84,West,267,6.0,10.0,62,0.00,,,0.76,Wunderground v.1.15,2013-08-02 18:15:00,
2013-08-02 13:20:00,82.5,68.2,29.85,SW,221,5.0,11.0,62,0.00,,,0.76,Wunderground v.1.15,2013-08-02 18:20:00,
2013-08-02 13:25:00,82.4,67.6,29.85,WSW,249,9.0,16.0,61,0.00,,,0.76,Wunderground v.1.15,2013-08-02 18:25:00,
2013-08-02 13:30:00,82.5,68.2,29.85,West,271,3.0,16.0,62,0.00,,,0.76,Wunderground v.1.15,2013-08-02 18:30:00,
2013-08-02 13:35:00,82.4,66.6,29.85,WNW,300,4.0,10.0,59,0.00,,,0.76,Wunderground v.1.15,2013-08-02 18:35:00,
2013-08-02 13:40:00,82.5,66.7,29.85,West,269,8.0,14.0,59,0.00,,,0.76,Wunderground v.1.15,2013-08-02 18:40:00,
2013-08-02 13:45:00,82.6,67.3,29.85,WNW,292,7.0,13.0,60,0.00,,,0.76,Wunderground v.1.15,2013-08-02 18:45:00,
2013-08-02 13:50:00,82.6,66.8,29.85,SW,217,5.0,13.0,59,0.00,,,0.76,Wunderground v.1.15,2013-08-02 18:50:00,
2013-08-02 13:55:00,83.1,66.8,29.84,SW,234,5.0,15.0,58,0.00,,,0.76,Wunderground v.1.15,2013-08-02 18:55:00,
2013-08-02 14:00:00,83.0,66.2,29.84,West,280,7.0,15.0,57,0.00,,,0.76,Wunderground v.1.15,2013-08-02 19:00:00,
2013-08-02 14:05:00,82.7,66.4,29.84,SW,232,3.0,11.0,58,0.00,,,0.76,Wunderground v.1.15,2013-08-02 19:05:00,
2013-08-02 14:10:00,82.3,66.5,29.85,WSW,247,4.0,16.0,59,0.00,,,0.76,Wunderground v.1.15,2013-08-02 19:10:00,
2013-08-02 14:15:00,81.9,66.6,29.85,West,279,7.0,13.0,60,0.00,,,0.76,Wunderground v.1.15,2013-08-02 19:15:00,
2013-08-02 14:20:00,81.3,66.1,29.85,WSW,256,10.0,17.0,60,0.00,,,0.76,Wunderground v.1.15,2013-08-02 19:20:00,
2013-08-02 14:25:00,80.9,67.1,29.85,West,273,6.0,15.0,63,0.00,,,0.76,Wunderground v.1.15,2013-08-02 19:25:00,
2013-08-02 14:30:00,80.2,66.5,29.86,WNW,297,7.0,15.0,63,0.00,,,0.76,Wunderground v.1.15,2013-08-02 19:30:00,
2013-08-02 14:35:00,79.9,68.0,29.86,WNW,295,0.0,6.0,67,0.00,,,0.76,Wunderground v.1.15,2013-08-02 19:35:00,
2013-08-02 14:40:00,80.7,69.6,29.86,ESE,107,1.0,6.0,69,0.00,,,0.76,Wunderground v.1.15,2013-08-02 19:40:00,
2013-08-02 14:45:00,81.2,69.6,29.86,East,98,4.0,9.0,68,0.00,,,0.76,Wunderground v.1.15,2013-08-02 19:45:00,
2013-08-02 14:50:00,80.5,68.5,29.86,NE,37,6.0,10.0,67,0.00,,,0.76,Wunderground v.1.15,2013-08-02 19:50:00,
2013-08-02 14:55:00,79.5,68.9,29.86,NNE,30,4.0,9.0,70,0.00,,,0.76,Wunderground v.1.15,2013-08-02 19:55:00,
2013-08-02 15:00:00,79.1,68.9,29.85,East,96,1.0,9.0,71,0.00,,,0.76,Wunderground v.1.15,2013-08-02 20:00:00,
2013-08-02 15:05:00,78.7,68.5,29.85,NNE,26,4.0,7.0,71,0.00,,,0.76,Wunderground v.1.15,2013-08-02 20:05:00,
2013-08-02 15:10:00,78.6,68.8,29.85,NNE,18,3.0,10.0,72,0.00,,,0.76,Wunderground v.1.15,2013-08-02 20:10:00,
2013-08-02 15:15:00,78.8,69.4,29.85,ENE,78,3.0,7.0,73,0.00,,,0.76,Wunderground v.1.15,2013-08-02 20:15:00,
2013-08-02 15:20:00,79.4,69.6,29.85,ENE,70,4.0,8.0,72,0.00,,,0.76,Wunderground v.1.15,2013-08-02 20:20:00,
2013-08-02 15:25:00,79.2,69.0,29.85,NNE,32,3.0,8.0,71,0.00,,,0.76,Wunderground v.1.15,2013-08-02 20:25:00,
2013-08-02 15:30:00,78.6,68.4,29.84,NNE,15,3.0,8.0,71,0.00,,,0.76,Wunderground v.1.15,2013-08-02 20:30:00,
2013-08-02 15:35:00,78.0,68.6,29.85,ENE,73,3.0,6.0,73,0.00,,,0.76,Wunderground v.1.15,2013-08-02 20:35:00,
2013-08-02 15:40:00,77.3,68.4,29.85,ENE,63,3.0,6.0,74,0.00,,,0.76,Wunderground v.1.15,2013-08-02 20:40:00,
2013-08-02 15:45:00,76.6,68.1,29.85,NNE,13,3.0,6.0,75,0.00,,,0.76,Wunderground v.1.15,2013-08-02 20:45:00,
2013-08-02 15:50:00,76.0,67.9,29.85,NE,41,2.0,6.0,76,0.00,,,0.76,Wunderground v.1.15,2013-08-02 20:50:00,
2013-08-02 15:55:00,75.9,68.2,29.85,NE,39,0.0,5.0,77,0.00,,,0.76,Wunderground v.1.15,2013-08-02 20:55:00,
2013-08-02 16:00:00,75.9,68.2,29.84,ENE,59,0.0,5.0,77,0.00,,,0.76,Wunderground v.1.15,2013-08-02 21:00:00,
2013-08-02 16:05:00,76.0,68.3,29.85,NE,42,3.0,4.0,77,0.00,,,0.76,Wunderground v.1.15,2013-08-02 21:05:00,
2013-08-02 16:10:00,75.6,68.6,29.85,ENE,67,1.0,4.0,79,0.00,,,0.76,Wunderground v.1.15,2013-08-02 21:10:00,
2013-08-02 16:15:00,75.7,68.4,29.85,SE,124,2.0,4.0,78,0.00,,,0.76,Wunderground v.1.15,2013-08-02 21:15:00,
2013-08-02 16:20:00,75.7,68.4,29.85,NE,54,3.0,4.0,78,0.00,,,0.76,Wunderground v.1.15,2013-08-02 21:20:00,
2013-08-02 16:25:00,75.5,68.2,29.84,East,80,2.0,6.0,78,0.00,,,0.76,Wunderground v.1.15,2013-08-02 21:25:00,
2013-08-02 16:30:00,75.3,68.7,29.85,NE,40,2.0,6.0,80,0.00,,,0.76,Wunderground v.1.15,2013-08-02 21:30:00,
2013-08-02 16:35:00,75.5,68.5,29.85,NE,50,1.0,4.0,79,0.00,,,0.76,Wunderground v.1.15,2013-08-02 21:35:00,
2013-08-02 16:40:00,75.7,68.0,29.85,NE,51,3.0,4.0,77,0.00,,,0.76,Wunderground v.1.15,2013-08-02 21:40:00,
2013-08-02 16:45:00,75.9,68.2,29.85,ENE,59,1.0,3.0,77,0.00,,,0.76,Wunderground v.1.15,2013-08-02 21:45:00,
2013-08-02 16:50:00,76.1,68.4,29.85,ENE,61,0.0,3.0,77,0.00,,,0.76,Wunderground v.1.15,2013-08-02 21:50:00,
2013-08-02 16:55:00,76.2,68.5,29.85,ENE,62,0.0,2.0,77,0.00,,,0.76,Wunderground v.1.15,2013-08-02 21:55:00,
2013-08-02 17:00:00,76.2,68.5,29.85,ESE,118,0.0,3.0,77,0.00,,,0.76,Wunderground v.1.15,2013-08-02 22:00:00,
2013-08-02 17:05:00,76.3,68.6,29.85,SE,142,2.0,3.0,77,0.00,,,0.76,Wunderground v.1.15,2013-08-02 22:05:00,
2013-08-02 17:10:00,75.8,68.1,29.85,SE,138,3.0,4.0,77,0.00,,,0.76,Wunderground v.1.15,2013-08-02 22:10:00,
2013-08-02 17:15:00,75.6,68.3,29.85,ESE,109,1.0,3.0,78,0.00,,,0.76,Wunderground v.1.15,2013-08-02 22:15:00,
2013-08-02 17:20:00,76.0,68.3,29.85,NE,42,1.0,3.0,77,0.00,,,0.76,Wunderground v.1.15,2013-08-02 22:20:00,
2013-08-02 17:25:00,76.5,68.0,29.85,ESE,117,1.0,3.0,75,0.00,,,0.76,Wunderground v.1.15,2013-08-02 22:25:00,
2013-08-02 17:30:00,76.5,68.4,29.85,ESE,109,0.0,4.0,76,0.00,,,0.76,Wunderground v.1.15,2013-08-02 22:30:00,
2013-08-02 17:35:00,76.6,68.1,29.85,ESE,105,1.0,2.0,75,0.00,,,0.76,Wunderground v.1.15,2013-08-02 22:35:00,
2013-08-02 17:40:00,76.6,68.1,29.85,ESE,118,1.0,3.0,75,0.00,,,0.76,Wunderground v.1.15,2013-08-02 22:40:00,
2013-08-02 17:45:00,76.6,67.7,29.85,SE,126,1.0,4.0,74,0.00,,,0.76,Wunderground v.1.15,2013-08-02 22:45:00,
2013-08-02 17:50:00,76.4,68.3,29.85,SSE,165,6.0,6.0,76,0.00,,,0.76,Wunderground v.1.15,2013-08-02 22:50:00,
2013-08-02 17:55:00,75.9,67.8,29.85,ESE,115,4.0,6.0,76,0.00,,,0.76,Wunderground v.1.15,2013-08-02 22:55:00,
2013-08-02 18:00:00,75.8,67.7,29.85,SE,142,0.0,7.0,76,0.00,,,0.76,Wunderground v.1.15,2013-08-02 23:00:00,
2013-08-02 18:05:00,75.9,67.4,29.86,SE,145,3.0,5.0,75,0.00,,,0.76,Wunderground v.1.15,2013-08-02 23:05:00,
2013-08-02 18:10:00,76.1,67.2,29.86,ESE,115,0.0,5.0,74,0.00,,,0.76,Wunderground v.1.15,2013-08-02 23:10:00,
2013-08-02 18:15:00,76.2,67.3,29.86,ESE,107,2.0,4.0,74,0.00,,,0.76,Wunderground v.1.15,2013-08-02 23:15:00,
2013-08-02 18:20:00,76.2,67.7,29.86,SE,136,1.0,4.0,75,0.00,,,0.76,Wunderground v.1.15,2013-08-02 23:20:00,
2013-08-02 18:25:00,76.2,67.3,29.86,ESE,115,3.0,3.0,74,0.00,,,0.76,Wunderground v.1.15,2013-08-02 23:25:00,
2013-08-02 18:30:00,76.1,67.2,29.87,ESE,123,2.0,4.0,74,0.00,,,0.76,Wunderground v.1.15,2013-08-02 23:30:00,
2013-08-02 18:35:00,76.0,67.9,29.87,ESE,117,0.0,2.0,76,0.00,,,0.76,Wunderground v.1.15,2013-08-02 23:35:00,
2013-08-02 18:40:00,76.0,67.9,29.87,ESE,120,0.0,4.0,76,0.00,,,0.76,Wunderground v.1.15,2013-08-02 23:40:00,
2013-08-02 18:45:00,75.8,67.7,29.87,SE,128,2.0,4.0,76,0.00,,,0.76,Wunderground v.1.15,2013-08-02 23:45:00,
2013-08-02 18:50:00,75.7,67.6,29.87,SSE,160,2.0,4.0,76,0.00,,,0.76,Wunderground v.1.15,2013-08-02 23:50:00,
2013-08-02 18:55:00,75.8,67.3,29.87,SE,142,2.0,3.0,75,0.00,,,0.76,Wunderground v.1.15,2013-08-02 23:55:00,
2013-08-02 19:00:00,75.8,66.5,29.87,SSE,156,3.0,5.0,73,0.00,,,0.76,Wunderground v.1.15,2013-08-03 00:00:00,
2013-08-02 19:05:00,75.9,66.6,29.87,SE,146,1.0,5.0,73,0.00,,,0.76,Wunderground v.1.15,2013-08-03 00:05:00,
2013-08-02 19:10:00,75.9,66.6,29.87,SE,137,2.0,5.0,73,0.00,,,0.76,Wunderground v.1.15,2013-08-03 00:10:00,
2013-08-02 19:15:00,76.0,66.3,29.88,SE,134,1.0,3.0,72,0.00,,,0.76,Wunderground v.1.15,2013-08-03 00:15:00,
2013-08-02 19:20:00,76.0,66.3,29.88,SE,132,1.0,3.0,72,0.00,,,0.76,Wunderground v.1.15,2013-08-03 00:20:00,
2013-08-02 19:25:00,76.0,66.3,29.88,ESE,123,1.0,3.0,72,0.00,,,0.76,Wunderground v.1.15,2013-08-03 00:25:00,
2013-08-02 19:30:00,76.0,66.3,29.88,SE,140,1.0,3.0,72,0.00,,,0.76,Wunderground v.1.15,2013-08-03 00:30:00,
2013-08-02 19:35:00,75.9,66.6,29.88,SE,128,1.0,4.0,73,0.00,,,0.76,Wunderground v.1.15,2013-08-03 00:35:00,
2013-08-02 19:40:00,75.8,66.9,29.88,SE,132,0.0,4.0,74,0.00,,,0.76,Wunderground v.1.15,2013-08-03 00:40:00,
2013-08-02 19:45:00,75.6,66.7,29.88,SE,132,0.0,1.0,74,0.00,,,0.76,Wunderground v.1.15,2013-08-03 00:45:00,
2013-08-02 19:50:00,75.6,65.9,29.88,SE,135,0.0,2.0,72,0.00,,,0.76,Wunderground v.1.15,2013-08-03 00:50:00,
2013-08-02 19:55:00,75.6,65.5,29.88,SE,138,1.0,3.0,71,0.00,,,0.76,Wunderground v.1.15,2013-08-03 00:55:00,
2013-08-02 20:00:00,75.6,65.5,29.88,SE,138,1.0,3.0,71,0.00,,,0.76,Wunderground v.1.15,2013-08-03 01:00:00,
2013-08-02 20:05:00,75.6,66.3,29.88,SE,137,0.0,1.0,73,0.00,,,0.76,Wunderground v.1.15,2013-08-03 01:05:00,
2013-08-02 20:10:00,75.4,66.9,29.88,NE,42,2.0,3.0,75,0.00,,,0.76,Wunderground v.1.15,2013-08-03 01:10:00,
2013-08-02 20:15:00,75.1,67.4,29.88,NE,43,1.0,3.0,77,0.00,,,0.76,Wunderground v.1.15,2013-08-03 01:15:00,
2013-08-02 20:20:00,74.8,67.8,29.88,NE,43,1.0,3.0,79,0.00,,,0.76,Wunderground v.1.15,2013-08-03 01:20:00,
2013-08-02 20:25:00,74.6,67.7,29.88,NE,43,1.0,2.0,79,0.00,,,0.76,Wunderground v.1.15,2013-08-03 01:25:00,
2013-08-02 20:30:00,74.5,67.9,29.89,NE,43,0.0,2.0,80,0.00,,,0.76,Wunderground v.1.15,2013-08-03 01:30:00,
2013-08-02 20:35:00,74.4,67.8,29.89,NE,43,0.0,1.0,80,0.00,,,0.76,Wunderground v.1.15,2013-08-03 01:35:00,
2013-08-02 20:40:00,74.2,68.0,29.89,NE,43,0.0,1.0,81,0.00,,,0.76,Wunderground v.1.15,2013-08-03 01:40:00,
2013-08-02 20:45:00,74.0,67.1,29.89,NE,52,1.0,3.0,79,0.00,,,0.76,Wunderground v.1.15,2013-08-03 01:45:00,
2013-08-02 20:50:00,74.1,67.5,29.89,NNE,29,2.0,3.0,80,0.00,,,0.76,Wunderground v.1.15,2013-08-03 01:50:00,
2013-08-02 20:55:00,74.1,67.2,29.89,NE,44,0.0,3.0,79,0.00,,,0.76,Wunderground v.1.15,2013-08-03 01:55:00,
2013-08-02 21:00:00,74.0,67.4,29.89,NE,44,0.0,3.0,80,0.00,,,0.76,Wunderground v.1.15,2013-08-03 02:00:00,
2013-08-02 21:05:00,73.9,67.3,29.89,ENE,60,0.0,2.0,80,0.00,,,0.76,Wunderground v.1.15,2013-08-03 02:05:00,
2013-08-02 21:10:00,73.9,67.0,29.90,NE,53,0.0,2.0,79,0.00,,,0.76,Wunderground v.1.15,2013-08-03 02:10:00,
2013-08-02 21:15:00,73.9,66.6,29.90,NE,53,0.0,1.0,78,0.00,,,0.76,Wunderground v.1.15,2013-08-03 02:15:00,
2013-08-02 21:20:00,74.0,66.3,29.90,NE,53,0.0,2.0,77,0.00,,,0.76,Wunderground v.1.15,2013-08-03 02:20:00,
2013-08-02 21:25:00,74.0,66.7,29.90,East,97,1.0,2.0,78,0.00,,,0.76,Wunderground v.1.15,2013-08-03 02:25:00,
2013-08-02 21:30:00,74.0,66.3,29.90,SE,140,1.0,2.0,77,0.00,,,0.76,Wunderground v.1.15,2013-08-03 02:30:00,
2013-08-02 21:35:00,74.0,66.7,29.90,SE,135,0.0,2.0,78,0.00,,,0.76,Wunderground v.1.15,2013-08-03 02:35:00,
2013-08-02 21:40:00,73.9,66.6,29.90,SE,135,0.0,2.0,78,0.00,,,0.76,Wunderground v.1.15,2013-08-03 02:40:00,
2013-08-02 21:45:00,73.9,66.6,29.91,SE,135,0.0,1.0,78,0.00,,,0.76,Wunderground v.1.15,2013-08-03 02:45:00,
2013-08-02 21:50:00,73.8,66.5,29.91,SE,135,0.0,1.0,78,0.00,,,0.76,Wunderground v.1.15,2013-08-03 02:50:00,
2013-08-02 21:55:00,73.8,66.1,29.91,SE,136,0.0,1.0,77,0.00,,,0.76,Wunderground v.1.15,2013-08-03 02:55:00,
2013-08-02 22:00:00,73.8,65.0,29.91,SE,135,1.0,1.0,74,0.00,,,0.76,Wunderground v.1.15,2013-08-03 03:00:00,
2013-08-02 22:05:00,74.0,65.2,29.91,SE,135,0.0,2.0,74,0.00,,,0.76,Wunderground v.1.15,2013-08-03 03:05:00,
2013-08-02 22:10:00,74.3,65.1,29.91,SE,133,1.0,2.0,73,0.00,,,0.76,Wunderground v.1.15,2013-08-03 03:10:00,
2013-08-02 22:15:00,74.5,65.7,29.91,North,355,2.0,4.0,74,0.00,,,0.76,Wunderground v.1.15,2013-08-03 03:15:00,
2013-08-02 22:20:00,74.5,64.9,29.91,NNE,19,3.0,4.0,72,0.00,,,0.76,Wunderground v.1.15,2013-08-03 03:20:00,
2013-08-02 22:25:00,74.5,64.9,29.91,NNE,26,1.0,4.0,72,0.00,,,0.76,Wunderground v.1.15,2013-08-03 03:25:00,
2013-08-02 22:30:00,74.5,63.7,29.92,North,355,1.0,4.0,69,0.00,,,0.76,Wunderground v.1.15,2013-08-03 03:30:00,
2013-08-02 22:35:00,74.6,64.2,29.92,NE,38,0.0,3.0,70,0.00,,,0.76,Wunderground v.1.15,2013-08-03 03:35:00,
2013-08-02 22:40:00,74.9,62.3,29.92,NNE,14,0.0,6.0,65,0.00,,,0.76,Wunderground v.1.15,2013-08-03 03:40:00,
2013-08-02 22:45:00,75.1,63.0,29.92,North,11,0.0,3.0,66,0.00,,,0.76,Wunderground v.1.15,2013-08-03 03:45:00,
2013-08-02 22:50:00,75.2,62.6,29.92,North,11,0.0,3.0,65,0.00,,,0.76,Wunderground v.1.15,2013-08-03 03:50:00,
2013-08-02 22:55:00,75.3,61.8,29.92,NE,40,6.0,6.0,63,0.00,,,0.76,Wunderground v.1.15,2013-08-03 03:55:00,
2013-08-02 23:00:00,75.5,60.6,29.92,North,10,0.0,9.0,60,0.00,,,0.76,Wunderground v.1.15,2013-08-03 04:00:00,
2013-08-02 23:01:00,75.5,60.6,29.92,North,11,0.0,9.0,60,0.00,,,0.76,Wunderground v.1.15,2013-08-03 04:01:00,
2013-08-02 23:05:00,75.6,60.3,29.92,NNE,19,2.0,3.0,59,0.00,,,0.76,Wunderground v.1.15,2013-08-03 04:05:00,
2013-08-02 23:06:00,75.6,60.3,29.92,ESE,109,1.0,3.0,59,0.00,,,0.76,Wunderground v.1.15,2013-08-03 04:06:00,
2013-08-02 23:11:00,75.6,60.7,29.92,NNW,337,1.0,1.0,60,0.00,,,0.76,Wunderground v.1.15,2013-08-03 04:11:00,
2013-08-02 23:16:00,75.6,60.3,29.92,NNE,31,1.0,3.0,59,0.00,,,0.76,Wunderground v.1.15,2013-08-03 04:16:00,
2013-08-02 23:21:00,75.5,59.2,29.92,ENE,62,1.0,5.0,57,0.00,,,0.76,Wunderground v.1.15,2013-08-03 04:21:00,
2013-08-02 23:26:00,75.6,59.8,29.93,North,10,2.0,10.0,58,0.00,,,0.76,Wunderground v.1.15,2013-08-03 04:26:00,
2013-08-02 23:31:00,75.8,59.5,29.93,NE,38,5.0,10.0,57,0.00,,,0.76,Wunderground v.1.15,2013-08-03 04:31:00,
2013-08-02 23:36:00,75.6,59.3,29.93,NE,53,9.0,15.0,57,0.00,,,0.76,Wunderground v.1.15,2013-08-03 04:36:00,
2013-08-02 23:41:00,75.6,59.3,29.94,NE,49,3.0,15.0,57,0.00,,,0.76,Wunderground v.1.15,2013-08-03 04:41:00,
2013-08-02 23:46:00,75.5,59.7,29.94,North,5,6.0,9.0,58,0.00,,,0.76,Wunderground v.1.15,2013-08-03 04:46:00,
2013-08-02 23:51:00,75.2,59.9,29.94,NE,49,6.0,11.0,59,0.00,,,0.76,Wunderground v.1.15,2013-08-03 04:51:00,
2013-08-02 23:56:00,74.9,60.1,29.94,ENE,57,0.0,8.0,60,0.00,,,0.76,Wunderground v.1.15,2013-08-03 04:56:00,